createdAt,value
2019-03-30T00:01:11.077Z,1.00
2019-03-30T00:03:44.659Z,1.10
2019-03-30T00:06:18.133Z,0.90
2019-03-30T00:08:51.722Z,1.00
2019-03-30T00:11:25.403Z,0.93
2019-03-30T00:13:59.158Z,0.90
2019-03-30T00:16:32.721Z,0.70
2019-03-30T00:19:06.309Z,0.90
2019-03-30T00:21:39.851Z,0.97
2019-03-30T00:24:13.613Z,0.80
2019-03-30T00:26:47.312Z,0.93
2019-03-30T00:29:20.896Z,0.90
2019-03-30T00:31:54.428Z,0.90
2019-03-30T00:34:27.968Z,0.80
2019-03-30T00:37:01.699Z,1.00
2019-03-30T00:39:35.298Z,0.83
2019-03-30T00:42:08.996Z,0.80
2019-03-30T00:44:42.621Z,0.80
2019-03-30T00:47:16.611Z,0.80
2019-03-30T00:49:50.369Z,0.83
2019-03-30T00:52:24.186Z,0.90
2019-03-30T00:54:57.695Z,1.00
2019-03-30T00:57:31.306Z,0.63
2019-03-30T01:00:06.401Z,0.67
2019-03-30T01:02:40.199Z,0.70
2019-03-30T01:05:13.958Z,0.90
2019-03-30T01:07:47.809Z,0.80
2019-03-30T01:10:25.630Z,0.90
2019-03-30T01:12:59.554Z,0.80
2019-03-30T01:15:33.248Z,0.80
2019-03-30T01:18:07.061Z,1.00
2019-03-30T01:20:40.796Z,0.80
2019-03-30T01:23:14.503Z,0.80
2019-03-30T01:25:48.190Z,0.87
2019-03-30T01:28:21.882Z,0.70
2019-03-30T01:30:55.617Z,1.07
2019-03-30T01:33:29.191Z,0.90
2019-03-30T01:36:02.865Z,0.83
2019-03-30T01:38:36.668Z,0.90
2019-03-30T01:41:10.426Z,1.00
2019-03-30T01:43:46.656Z,0.80
2019-03-30T01:46:20.251Z,0.53
2019-03-30T01:48:53.742Z,0.60
2019-03-30T01:51:27.368Z,0.60
2019-03-30T01:54:00.907Z,1.10
2019-03-30T01:56:34.467Z,0.60
2019-03-30T01:59:08.132Z,0.90
2019-03-30T02:01:41.954Z,0.97
2019-03-30T02:04:15.613Z,0.70
2019-03-30T02:06:49.194Z,1.03
2019-03-30T02:09:22.978Z,0.80
2019-03-30T02:11:56.516Z,1.10
2019-03-30T02:14:30.221Z,1.03
2019-03-30T02:17:03.870Z,0.90
2019-03-30T02:19:37.571Z,1.00
2019-03-30T02:22:11.087Z,0.97
2019-03-30T02:24:45.147Z,1.00
2019-03-30T02:27:18.852Z,1.00
2019-03-30T02:29:52.684Z,1.13
2019-03-30T02:32:26.374Z,1.00
2019-03-30T02:35:00.027Z,1.10
2019-03-30T02:37:33.590Z,1.30
2019-03-30T02:40:07.407Z,1.20
2019-03-30T02:42:41.054Z,1.00
2019-03-30T02:45:14.755Z,1.00
2019-03-30T02:47:48.298Z,0.80
2019-03-30T02:50:22.064Z,0.80
2019-03-30T02:52:55.687Z,0.70
2019-03-30T02:55:29.432Z,0.70
2019-03-30T02:58:03.164Z,0.80
2019-03-30T03:00:37.135Z,0.70
2019-03-30T03:03:11.108Z,0.80
2019-03-30T03:05:44.892Z,0.80
2019-03-30T03:08:18.413Z,0.70
2019-03-30T03:10:52.070Z,0.70
2019-03-30T03:13:25.799Z,0.70
2019-03-30T03:15:59.578Z,0.80
2019-03-30T03:18:33.305Z,0.70
2019-03-30T03:21:08.530Z,0.73
2019-03-30T03:23:41.929Z,0.77
2019-03-30T03:26:15.508Z,0.77
2019-03-30T03:28:49.036Z,0.87
2019-03-30T03:31:22.752Z,0.80
2019-03-30T03:33:56.436Z,0.60
2019-03-30T03:36:30.175Z,0.80
2019-03-30T03:39:03.769Z,0.70
2019-03-30T03:41:37.277Z,0.60
2019-03-30T03:44:11.029Z,0.60
2019-03-30T03:46:44.628Z,0.80
2019-03-30T03:49:18.251Z,1.00
2019-03-30T03:51:52.045Z,1.13
2019-03-30T03:54:25.723Z,1.10
2019-03-30T03:57:00.314Z,1.00
2019-03-30T03:59:34.649Z,0.90
2019-03-30T04:02:09.924Z,1.10
2019-03-30T04:04:47.571Z,1.20
2019-03-30T04:07:23.717Z,1.10
2019-03-30T04:10:00.559Z,1.00
2019-03-30T04:12:37.462Z,1.00
2019-03-30T04:15:12.937Z,1.00
2019-03-30T04:17:46.664Z,1.10
2019-03-30T04:20:23.222Z,1.13
2019-03-30T04:22:57.212Z,1.13
2019-03-30T04:25:31.030Z,1.00
2019-03-30T04:28:04.953Z,1.10
2019-03-30T04:30:38.598Z,1.30
2019-03-30T04:33:12.964Z,1.00
2019-03-30T04:35:47.474Z,1.00
2019-03-30T04:38:21.312Z,1.10
2019-03-30T04:40:54.965Z,0.90
2019-03-30T04:43:28.732Z,0.80
2019-03-30T04:46:02.511Z,0.80
2019-03-30T04:48:36.185Z,0.70
2019-03-30T04:51:10.611Z,0.90
2019-03-30T04:53:47.447Z,0.80
2019-03-30T04:56:20.906Z,0.80
2019-03-30T04:58:54.678Z,0.70
2019-03-30T05:01:28.814Z,1.00
2019-03-30T05:04:02.395Z,0.70
2019-03-30T05:06:36.013Z,0.90
2019-03-30T05:09:10.579Z,0.93
2019-03-30T05:11:46.789Z,0.90
2019-03-30T05:14:23.493Z,0.70
2019-03-30T05:16:57.352Z,0.70
2019-03-30T05:19:31.072Z,0.87
2019-03-30T05:22:12.603Z,1.30
2019-03-30T05:24:39.711Z,1.23
2019-03-30T05:27:13.370Z,1.03
2019-03-30T05:29:46.853Z,1.10
2019-03-30T05:32:20.472Z,1.30
2019-03-30T05:34:54.091Z,1.10
2019-03-30T05:37:28.517Z,1.10
2019-03-30T05:40:02.230Z,1.23
2019-03-30T05:42:36.078Z,1.10
2019-03-30T05:45:12.758Z,1.10
2019-03-30T05:47:46.566Z,1.17
2019-03-30T05:50:20.402Z,1.00
2019-03-30T05:52:53.919Z,1.00
2019-03-30T05:55:27.583Z,0.90
2019-03-30T05:58:01.254Z,1.00
2019-03-30T06:00:34.883Z,1.20
2019-03-30T06:03:09.464Z,0.90
2019-03-30T06:05:45.327Z,1.10
2019-03-30T06:08:21.738Z,1.20
2019-03-30T06:10:55.530Z,1.30
2019-03-30T06:13:29.085Z,1.20
2019-03-30T06:16:02.944Z,0.83
2019-03-30T06:18:36.482Z,1.03
2019-03-30T06:21:09.991Z,1.10
2019-03-30T06:23:43.516Z,1.17
2019-03-30T06:26:17.178Z,1.17
2019-03-30T06:28:51.081Z,1.07
2019-03-30T06:31:24.799Z,1.23
2019-03-30T06:33:58.308Z,1.20
2019-03-30T06:36:32.552Z,1.03
2019-03-30T06:39:06.719Z,1.17
2019-03-30T06:41:40.220Z,1.10
2019-03-30T06:44:14.024Z,1.20
2019-03-30T06:46:47.814Z,1.60
2019-03-30T06:49:21.482Z,1.37
2019-03-30T06:51:55.198Z,1.40
2019-03-30T06:54:28.761Z,1.50
2019-03-30T06:57:02.360Z,1.20
2019-03-30T06:59:36.101Z,1.00
2019-03-30T07:02:11.263Z,1.30
2019-03-30T07:04:45.287Z,1.70
2019-03-30T07:07:19.903Z,1.17
2019-03-30T07:09:55.375Z,1.60
2019-03-30T07:12:30.249Z,2.20
2019-03-30T07:15:05.851Z,2.43
2019-03-30T07:17:44.035Z,2.07
2019-03-30T07:20:31.713Z,2.10
2019-03-30T07:23:11.827Z,2.20
2019-03-30T07:25:40.498Z,1.80
2019-03-30T07:28:14.249Z,1.40
2019-03-30T07:30:47.950Z,1.20
2019-03-30T07:33:21.668Z,1.30
2019-03-30T07:35:55.377Z,1.20
2019-03-30T07:38:28.965Z,1.27
2019-03-30T07:41:02.873Z,1.13
2019-03-30T07:43:36.588Z,1.03
2019-03-30T07:46:10.306Z,1.30
2019-03-30T07:48:43.890Z,1.30
2019-03-30T07:51:17.345Z,1.20
2019-03-30T07:53:51.301Z,1.30
2019-03-30T07:56:24.750Z,1.40
2019-03-30T07:58:58.213Z,1.40
2019-03-30T08:01:31.771Z,1.50
2019-03-30T08:04:05.555Z,1.50
2019-03-30T08:06:41.700Z,1.50
2019-03-30T08:09:15.429Z,1.37
2019-03-30T08:11:49.969Z,1.20
2019-03-30T08:14:23.729Z,1.57
2019-03-30T08:16:57.193Z,1.30
2019-03-30T08:19:30.813Z,1.10
2019-03-30T08:22:04.368Z,1.20
2019-03-30T08:24:38.021Z,1.50
2019-03-30T08:27:11.887Z,1.67
2019-03-30T08:29:45.807Z,1.70
2019-03-30T08:32:19.333Z,2.10
2019-03-30T08:34:52.942Z,2.23
2019-03-30T08:37:26.594Z,1.93
2019-03-30T08:40:00.305Z,1.77
2019-03-30T08:42:34.009Z,1.77
2019-03-30T08:45:08.715Z,2.20
2019-03-30T08:47:42.404Z,1.60
2019-03-30T08:50:16.741Z,1.80
2019-03-30T08:52:50.373Z,1.93
2019-03-30T08:55:24.120Z,1.77
2019-03-30T08:57:57.711Z,1.77
2019-03-30T09:00:42.678Z,2.00
2019-03-30T09:03:16.503Z,2.00
2019-03-30T09:05:50.055Z,2.10
2019-03-30T09:08:23.641Z,2.00
2019-03-30T09:10:57.431Z,2.23
2019-03-30T09:13:31.152Z,3.40
2019-03-30T09:16:04.860Z,4.20
2019-03-30T09:18:38.536Z,3.53
2019-03-30T09:21:12.156Z,2.97
2019-03-30T09:23:45.701Z,2.70
2019-03-30T09:26:19.431Z,2.23
2019-03-30T09:28:53.017Z,2.00
2019-03-30T09:31:26.471Z,2.07
2019-03-30T09:34:00.070Z,1.90
2019-03-30T09:36:33.741Z,2.10
2019-03-30T09:39:08.562Z,2.00
2019-03-30T09:41:42.148Z,1.27
2019-03-30T09:44:15.647Z,1.37
2019-03-30T09:46:49.367Z,1.33
2019-03-30T09:49:22.909Z,1.50
2019-03-30T09:51:56.533Z,1.50
2019-03-30T09:54:30.120Z,1.90
2019-03-30T09:57:03.711Z,1.50
2019-03-30T09:59:37.394Z,1.50
2019-03-30T10:02:11.233Z,1.80
2019-03-30T10:04:44.865Z,1.30
2019-03-30T10:07:18.476Z,1.30
2019-03-30T10:09:52.088Z,1.23
2019-03-30T10:12:25.937Z,1.20
2019-03-30T10:14:59.611Z,1.43
2019-03-30T10:17:33.125Z,1.30
2019-03-30T10:20:06.975Z,1.90
2019-03-30T10:22:42.327Z,1.57
2019-03-30T10:25:16.312Z,1.40
2019-03-30T10:27:49.893Z,1.50
2019-03-30T10:30:23.677Z,1.50
2019-03-30T10:32:57.361Z,1.67
2019-03-30T10:35:31.095Z,1.30
2019-03-30T10:38:04.788Z,1.43
2019-03-30T10:40:38.596Z,1.07
2019-03-30T10:43:12.355Z,1.33
2019-03-30T10:45:45.891Z,1.30
2019-03-30T10:48:19.730Z,1.00
2019-03-30T10:50:53.232Z,1.10
2019-03-30T10:53:26.750Z,1.20
2019-03-30T10:56:18.295Z,1.50
2019-03-30T10:58:52.055Z,1.37
2019-03-30T11:01:25.913Z,1.57
2019-03-30T11:03:59.628Z,1.30
2019-03-30T11:06:33.282Z,1.40
2019-03-30T11:09:07.579Z,1.60
2019-03-30T11:11:41.188Z,1.43
2019-03-30T11:14:15.423Z,1.30
2019-03-30T11:16:49.299Z,1.60
2019-03-30T11:19:22.859Z,1.40
2019-03-30T11:21:56.376Z,1.33
2019-03-30T11:24:30.084Z,1.40
2019-03-30T11:27:03.546Z,1.30
2019-03-30T11:29:37.345Z,1.57
2019-03-30T11:32:12.273Z,1.20
2019-03-30T11:34:45.770Z,1.50
2019-03-30T11:37:19.270Z,1.17
2019-03-30T11:39:52.798Z,1.53
2019-03-30T11:42:26.558Z,1.50
2019-03-30T11:45:00.283Z,1.10
2019-03-30T11:47:34.077Z,1.63
2019-03-30T11:50:07.936Z,1.30
2019-03-30T11:52:41.641Z,1.30
2019-03-30T11:55:21.791Z,1.60
2019-03-30T11:57:50.589Z,1.43
2019-03-30T12:00:24.401Z,1.43
2019-03-30T12:02:58.119Z,1.50
2019-03-30T12:05:31.999Z,1.73
2019-03-30T12:08:06.025Z,1.30
2019-03-30T12:10:39.601Z,1.23
2019-03-30T12:13:13.125Z,1.50
2019-03-30T12:15:46.893Z,1.70
2019-03-30T12:18:20.638Z,1.53
2019-03-30T12:20:54.311Z,1.77
2019-03-30T12:23:28.015Z,1.57
2019-03-30T12:26:01.642Z,1.73
2019-03-30T12:28:35.301Z,1.77
2019-03-30T12:31:08.814Z,1.40
2019-03-30T12:33:42.654Z,1.53
2019-03-30T12:36:16.317Z,1.60
2019-03-30T12:38:49.854Z,1.30
2019-03-30T12:41:23.426Z,1.77
2019-03-30T12:43:57.285Z,1.40
2019-03-30T12:46:30.916Z,1.70
2019-03-30T12:49:04.615Z,1.60
2019-03-30T12:51:38.423Z,1.60
2019-03-30T12:54:11.949Z,1.90
2019-03-30T12:56:45.469Z,1.67
2019-03-30T12:59:19.004Z,1.70
2019-03-30T13:01:52.805Z,2.10
2019-03-30T13:04:26.321Z,1.80
2019-03-30T13:06:59.886Z,1.80
2019-03-30T13:09:34.855Z,1.60
2019-03-30T13:12:08.756Z,1.60
2019-03-30T13:14:42.330Z,2.03
2019-03-30T13:17:16.167Z,1.70
2019-03-30T13:19:49.873Z,1.40
2019-03-30T13:22:23.657Z,1.70
2019-03-30T13:24:57.483Z,1.40
2019-03-30T13:27:31.139Z,1.40
2019-03-30T13:30:04.829Z,1.80
2019-03-30T13:32:47.989Z,1.80
2019-03-30T13:35:21.522Z,1.57
2019-03-30T13:37:56.393Z,1.40
2019-03-30T13:40:30.199Z,1.40
2019-03-30T13:43:03.879Z,1.47
2019-03-30T13:45:37.563Z,1.20
2019-03-30T13:48:12.401Z,1.67
2019-03-30T13:50:46.758Z,1.53
2019-03-30T13:53:20.485Z,1.37
2019-03-30T13:55:54.369Z,1.53
2019-03-30T13:58:28.250Z,1.53
2019-03-30T14:01:01.772Z,1.17
2019-03-30T14:03:35.545Z,1.30
2019-03-30T14:06:09.031Z,1.30
2019-03-30T14:08:42.527Z,1.27
2019-03-30T14:11:16.226Z,1.70
2019-03-30T14:13:49.859Z,1.40
2019-03-30T14:16:23.306Z,1.23
2019-03-30T14:18:56.881Z,1.20
2019-03-30T14:21:30.512Z,1.40
2019-03-30T14:24:04.198Z,1.40
2019-03-30T14:26:37.815Z,1.40
2019-03-30T14:29:11.685Z,1.47
2019-03-30T14:31:45.170Z,1.23
2019-03-30T14:34:18.679Z,1.50
2019-03-30T14:36:52.234Z,1.50
2019-03-30T14:39:28.773Z,1.23
2019-03-30T14:42:02.401Z,1.23
2019-03-30T14:44:35.899Z,1.50
2019-03-30T14:47:12.216Z,1.60
2019-03-30T14:49:45.967Z,1.37
2019-03-30T14:52:19.733Z,1.43
2019-03-30T14:54:53.827Z,1.03
2019-03-30T14:57:27.406Z,0.90
2019-03-30T15:00:00.995Z,1.10
2019-03-30T15:02:34.987Z,1.17
2019-03-30T15:05:09.047Z,1.23
2019-03-30T15:07:44.068Z,1.17
2019-03-30T15:10:18.007Z,1.50
2019-03-30T15:12:51.582Z,1.50
2019-03-30T15:15:25.369Z,1.40
2019-03-30T15:17:59.218Z,1.20
2019-03-30T15:20:33.173Z,1.30
2019-03-30T15:23:07.138Z,1.70
2019-03-30T15:25:40.790Z,1.20
2019-03-30T15:28:14.476Z,1.20
2019-03-30T15:30:48.175Z,1.07
2019-03-30T15:33:21.810Z,1.20
2019-03-30T15:35:55.364Z,1.60
2019-03-30T15:38:28.989Z,1.30
2019-03-30T15:41:02.703Z,1.70
2019-03-30T15:43:38.507Z,1.80
2019-03-30T15:46:14.221Z,1.70
2019-03-30T15:48:46.691Z,1.53
2019-03-30T15:51:20.495Z,1.90
2019-03-30T15:53:54.066Z,1.80
2019-03-30T15:56:27.978Z,1.97
2019-03-30T15:59:01.617Z,1.70
2019-03-30T16:01:36.534Z,2.10
2019-03-30T16:04:10.152Z,1.97
2019-03-30T16:06:43.845Z,1.67
2019-03-30T16:09:17.443Z,1.73
2019-03-30T16:11:51.094Z,1.80
2019-03-30T16:14:24.703Z,1.33
2019-03-30T16:16:58.660Z,1.50
2019-03-30T16:19:32.556Z,1.50
2019-03-30T16:22:06.523Z,1.40
2019-03-30T16:24:40.174Z,1.50
2019-03-30T16:27:27.859Z,1.40
2019-03-30T16:29:49.029Z,1.30
2019-03-30T16:32:22.650Z,1.13
2019-03-30T16:34:56.194Z,1.43
2019-03-30T16:37:29.881Z,1.40
2019-03-30T16:40:03.538Z,1.13
2019-03-30T16:42:37.422Z,1.17
2019-03-30T16:45:11.563Z,1.40
2019-03-30T16:47:45.300Z,1.50
2019-03-30T16:50:19.345Z,1.60
2019-03-30T16:52:53.091Z,1.30
2019-03-30T16:55:26.611Z,1.40
2019-03-30T16:58:00.237Z,1.53
2019-03-30T17:00:37.792Z,1.40
2019-03-30T17:03:11.641Z,1.60
2019-03-30T17:05:45.116Z,1.20
2019-03-30T17:08:18.821Z,1.40
2019-03-30T17:10:52.622Z,1.40
2019-03-30T17:13:26.465Z,1.20
2019-03-30T17:16:04.869Z,1.40
2019-03-30T17:18:38.658Z,1.60
2019-03-30T17:21:12.240Z,1.20
2019-03-30T17:23:48.215Z,1.70
2019-03-30T17:26:22.224Z,1.50
2019-03-30T17:29:00.936Z,1.70
2019-03-30T17:31:34.694Z,1.83
2019-03-30T17:34:08.507Z,1.60
2019-03-30T17:36:42.196Z,1.40
2019-03-30T17:39:15.881Z,2.00
2019-03-30T17:41:49.437Z,1.87
2019-03-30T17:44:22.969Z,1.80
2019-03-30T17:46:56.629Z,1.40
2019-03-30T17:49:31.266Z,1.53
2019-03-30T17:52:04.957Z,1.63
2019-03-30T17:54:39.989Z,1.27
2019-03-30T17:57:17.188Z,1.33
2019-03-30T17:59:48.831Z,1.63
2019-03-30T18:02:23.275Z,1.20
2019-03-30T18:04:57.436Z,1.60
2019-03-30T18:07:30.952Z,1.70
2019-03-30T18:10:04.861Z,1.50
2019-03-30T18:12:38.745Z,1.70
2019-03-30T18:15:13.408Z,1.90
2019-03-30T18:17:47.027Z,1.80
2019-03-30T18:20:20.811Z,2.10
2019-03-30T18:22:54.776Z,1.47
2019-03-30T18:25:28.445Z,2.10
2019-03-30T18:28:02.183Z,1.77
2019-03-30T18:30:40.744Z,1.50
2019-03-30T18:33:14.505Z,1.77
2019-03-30T18:35:48.623Z,1.80
2019-03-30T18:38:22.508Z,1.87
2019-03-30T18:40:56.478Z,1.60
2019-03-30T18:43:30.859Z,1.70
2019-03-30T18:46:04.729Z,1.60
2019-03-30T18:48:38.587Z,1.60
2019-03-30T18:51:12.679Z,1.97
2019-03-30T18:53:47.202Z,2.03
2019-03-30T18:56:21.357Z,1.70
2019-03-30T18:58:55.262Z,1.77
2019-03-30T19:01:29.385Z,1.73
2019-03-30T19:04:02.945Z,1.60
2019-03-30T19:06:36.673Z,1.70
2019-03-30T19:09:11.587Z,1.40
2019-03-30T19:11:45.187Z,1.60
2019-03-30T19:14:19.446Z,1.80
2019-03-30T19:16:53.308Z,1.70
2019-03-30T19:19:27.202Z,1.60
2019-03-30T19:22:01.236Z,1.90
2019-03-30T19:24:35.175Z,1.40
2019-03-30T19:27:09.844Z,1.83
2019-03-30T19:29:43.998Z,2.00
2019-03-30T19:32:18.270Z,1.97
2019-03-30T19:34:51.911Z,1.67
2019-03-30T19:37:25.493Z,1.40
2019-03-30T19:39:59.340Z,1.33
2019-03-30T19:42:33.322Z,1.70
2019-03-30T19:45:12.599Z,1.70
2019-03-30T19:47:47.636Z,1.77
2019-03-30T19:50:21.570Z,1.60
2019-03-30T19:52:56.125Z,1.40
2019-03-30T19:55:29.958Z,1.70
2019-03-30T19:58:03.769Z,1.37
2019-03-30T20:00:38.973Z,1.40
2019-03-30T20:03:12.729Z,1.20
2019-03-30T20:05:46.486Z,1.63
2019-03-30T20:08:21.036Z,1.63
2019-03-30T20:10:55.473Z,1.40
2019-03-30T20:13:29.580Z,1.50
2019-03-30T20:16:03.870Z,1.80
2019-03-30T20:18:37.421Z,1.67
2019-03-30T20:21:11.216Z,1.40
2019-03-30T20:23:44.698Z,1.33
2019-03-30T20:26:18.300Z,1.40
2019-03-30T20:28:52.273Z,1.57
2019-03-30T20:31:26.004Z,1.70
2019-03-30T20:33:59.563Z,1.70
2019-03-30T20:36:35.199Z,1.60
2019-03-30T20:39:12.233Z,2.23
2019-03-30T20:41:46.867Z,2.30
2019-03-30T20:44:20.426Z,1.97
2019-03-30T20:46:55.010Z,1.93
2019-03-30T20:49:30.105Z,1.90
2019-03-30T20:52:03.898Z,2.00
2019-03-30T20:54:38.520Z,2.07
2019-03-30T20:57:12.154Z,1.83
2019-03-30T20:59:45.893Z,2.10
2019-03-30T21:02:23.042Z,1.90
2019-03-30T21:04:56.816Z,1.90
2019-03-30T21:07:32.295Z,2.30
2019-03-30T21:10:06.538Z,1.80
2019-03-30T21:12:40.369Z,1.80
2019-03-30T21:15:14.219Z,1.80
2019-03-30T21:17:47.799Z,1.60
2019-03-30T21:20:21.549Z,2.10
2019-03-30T21:22:55.308Z,2.23
2019-03-30T21:25:29.162Z,2.03
2019-03-30T21:28:03.014Z,1.73
2019-03-30T21:30:36.955Z,5.20
2019-03-30T21:33:10.719Z,2.23
2019-03-30T21:35:44.458Z,1.87
2019-03-30T21:38:18.150Z,1.70
2019-03-30T21:40:51.759Z,1.77
2019-03-30T21:43:25.439Z,1.67
2019-03-30T21:45:59.525Z,1.77
2019-03-30T21:48:33.148Z,1.70
2019-03-30T21:51:06.757Z,1.17
2019-03-30T21:53:40.456Z,1.10
2019-03-30T21:56:14.281Z,1.53
2019-03-30T21:58:47.878Z,1.57
2019-03-30T22:01:21.725Z,1.50
2019-03-30T22:03:55.385Z,1.43
2019-03-30T22:06:29.020Z,1.40
2019-03-30T22:09:03.005Z,1.30
2019-03-30T22:11:37.058Z,1.40
2019-03-30T22:14:10.681Z,1.60
2019-03-30T22:16:44.376Z,1.60
2019-03-30T22:19:17.977Z,1.00
2019-03-30T22:21:51.711Z,1.10
2019-03-30T22:24:25.285Z,1.10
2019-03-30T22:26:59.198Z,1.07
2019-03-30T22:29:32.913Z,1.07
2019-03-30T22:32:06.601Z,1.20
2019-03-30T22:34:40.124Z,1.30
2019-03-30T22:37:13.798Z,1.23
2019-03-30T22:39:47.848Z,1.30
2019-03-30T22:42:21.388Z,1.37
2019-03-30T22:44:55.010Z,0.97
2019-03-30T22:47:28.817Z,1.40
2019-03-30T22:50:02.472Z,1.17
2019-03-30T22:52:36.122Z,1.10
2019-03-30T22:55:10.301Z,1.30
2019-03-30T22:57:44.048Z,1.10
2019-03-30T23:00:39.011Z,1.20
2019-03-30T23:03:11.561Z,1.30
2019-03-30T23:05:45.051Z,1.43
2019-03-30T23:08:18.638Z,1.60
2019-03-30T23:10:52.326Z,1.40
2019-03-30T23:13:26.357Z,1.27
2019-03-30T23:16:00.135Z,1.30
2019-03-30T23:18:33.886Z,1.40
2019-03-30T23:21:07.579Z,1.30
2019-03-30T23:23:41.124Z,1.30
2019-03-30T23:26:14.855Z,1.20
2019-03-30T23:28:48.547Z,1.40
2019-03-30T23:31:22.187Z,1.17
2019-03-30T23:33:56.616Z,1.20
2019-03-30T23:36:30.157Z,1.17
2019-03-30T23:39:03.898Z,1.23
2019-03-30T23:41:38.870Z,1.40
2019-03-30T23:44:12.630Z,1.50
2019-03-30T23:46:46.390Z,1.10
2019-03-30T23:49:20.095Z,1.27
2019-03-30T23:51:53.846Z,1.10
2019-03-30T23:54:27.639Z,1.50
2019-03-30T23:57:01.429Z,1.43
2019-03-30T23:59:35.124Z,1.30
